Albertino Castanho — CUER3 — position and weather

sailwx.info

Track history (hours):
 
Tides and Currents Weather Stations Pressure Air Temp Water Temp Dewpoint Dewpoint Depression Visibility Wind Speed Wind Dir Waves Ship Positions

Albertino Castanho

Last reported at 2017-Sep-07 19:14 UTC. Time now 2017-Sep-21 23:17 UTC.
Position N 40°12' W 009°04'.
Warning: this ship's position is 14 days out of date.

Length 18 m.

Type: Fishing. MMSI: 263413770.

Date/timePositionNaut miles runAvg speedWind from/ knotsBaromVisibWave heightAir tempDewpointWater temp
2017-Sep-07 19:14N 40°12' W 009°04'2 8.1
2017-Sep-07 19:00N 40°13' W 009°06'4 8.1
2017-Sep-07 18:30N 40°14' W 009°11'4 7.9
2017-Sep-07 18:00N 40°16' W 009°15'4 8.1
2017-Sep-07 17:30N 40°17' W 009°20'4 8.0
2017-Sep-07 16:59N 40°19' W 009°25'9 5.2
2017-Sep-07 15:20N 40°22' W 009°36'0 1.3
2017-Sep-07 15:00N 40°22' W 009°36'1 1.5
2017-Sep-07 14:23N 40°21' W 009°36'1 1.4
2017-Sep-07 14:01N 40°20' W 009°36'1 1.5
2017-Sep-07 13:27N 40°19' W 009°36'0 1.1
2017-Sep-07 13:00N 40°19' W 009°36'0 0.9
2017-Sep-07 12:30N 40°18' W 009°36'1 1.0
2017-Sep-07 12:00N 40°18' W 009°36'1 1.1
2017-Sep-07 11:29N 40°17' W 009°36'1 1.0
2017-Sep-07 10:59N 40°17' W 009°36'1 1.2
2017-Sep-07 10:30N 40°16' W 009°36'1 1.3
2017-Sep-07 10:00N 40°16' W 009°36'1 1.5
2017-Sep-07 09:26N 40°15' W 009°36'0 1.1
2017-Sep-07 09:00N 40°14' W 009°36'7 0.2
2017-Sep-05 19:41N 40°14' W 009°27'3 8.9
2017-Sep-05 19:22N 40°15' W 009°31'3 8.0
2017-Sep-05 19:00N 40°15' W 009°34'  
Track history (hours):
 
Tides and Currents Weather Stations Pressure Air Temp Water Temp Dewpoint Dewpoint Depression Visibility Wind Speed Wind Dir Waves Ship Positions

Albertino Castanho

Last reported at 2017-Sep-07 19:14 UTC. Time now 2017-Sep-21 23:17 UTC.
Position N 40°12' W 009°04'.
Warning: this ship's position is 14 days out of date.

Length 18 m.

Type: Fishing. MMSI: 263413770.

Date/timePositionNaut miles runAvg speedWind from/ knotsBaromVisibWave heightAir tempDewpointWater temp
2017-Sep-07 19:14N 40°12' W 009°04'2 8.1
2017-Sep-07 19:00N 40°13' W 009°06'4 8.1
2017-Sep-07 18:30N 40°14' W 009°11'4 7.9
2017-Sep-07 18:00N 40°16' W 009°15'4 8.1
2017-Sep-07 17:30N 40°17' W 009°20'4 8.0
2017-Sep-07 16:59N 40°19' W 009°25'9 5.2
2017-Sep-07 15:20N 40°22' W 009°36'0 1.3
2017-Sep-07 15:00N 40°22' W 009°36'1 1.5
2017-Sep-07 14:23N 40°21' W 009°36'1 1.4
2017-Sep-07 14:01N 40°20' W 009°36'1 1.5
2017-Sep-07 13:27N 40°19' W 009°36'0 1.1
2017-Sep-07 13:00N 40°19' W 009°36'0 0.9
2017-Sep-07 12:30N 40°18' W 009°36'1 1.0
2017-Sep-07 12:00N 40°18' W 009°36'1 1.1
2017-Sep-07 11:29N 40°17' W 009°36'1 1.0
2017-Sep-07 10:59N 40°17' W 009°36'1 1.2
2017-Sep-07 10:30N 40°16' W 009°36'1 1.3
2017-Sep-07 10:00N 40°16' W 009°36'1 1.5
2017-Sep-07 09:26N 40°15' W 009°36'0 1.1
2017-Sep-07 09:00N 40°14' W 009°36'7 0.2
2017-Sep-05 19:41N 40°14' W 009°27'3 8.9
2017-Sep-05 19:22N 40°15' W 009°31'3 8.0
2017-Sep-05 19:00N 40°15' W 009°34'  

Dump ship's entire track history